Alsace — PB4786 — position and weather

sailwx.info

Track history (hours):
 
Tides and Currents Weather Stations Pressure Air Temp Water Temp Dewpoint Dewpoint Depression Visibility Wind Speed Wind Dir Waves Ship Positions

Alsace

Last reported at 2014-Jul-25 15:12 UTC. Time now 2014-Jul-26 09:10 UTC.
Position N 51°11' E 006°47'.

Length 178 m.

Type: Ship. MMSI: 244660556.

Date/timePositionNaut miles runAvg speedWind from/ knotsBaromVisibWave heightAir tempDewpointWater temp
2014-Jul-25 15:12N 51°11' E 006°47'3 3.9
2014-Jul-25 14:33N 51°13' E 006°44'52 2.3
2014-Jul-24 15:31N 51°52' E 005°49'6 5.6
2014-Jul-24 14:32N 51°54' E 005°40'6 5.9
2014-Jul-24 13:33N 51°53' E 005°31'5 5.4
2014-Jul-24 12:33N 51°50' E 005°24'4 4.5
2014-Jul-24 11:33N 51°49' E 005°17'6 5.9
2014-Jul-24 10:33N 51°49' E 005°07'6 5.4
2014-Jul-24 09:32N 51°50' E 004°58'2 2.1
2014-Jul-24 08:33N 51°50' E 004°55'8 7.6
2014-Jul-24 07:34N 51°49' E 004°43'5 4.8
2014-Jul-24 06:33N 51°48' E 004°35'7 6.8
2014-Jul-24 05:33N 51°51' E 004°25'7 7.0
2014-Jul-24 04:33N 51°53' E 004°14'6 6.3
2014-Jul-24 03:33N 51°56' E 004°05'1 0.8
2014-Jul-24 02:32N 51°57' E 004°05'0 0.0
2014-Jul-24 01:34N 51°57' E 004°05'0 0.0
2014-Jul-24 00:33N 51°57' E 004°05'0 0.0
2014-Jul-23 23:33N 51°57' E 004°05'0 0.0
2014-Jul-23 22:33N 51°57' E 004°05'1 1.1
2014-Jul-23 21:33N 51°56' E 004°03'1 1.0
2014-Jul-23 20:33N 51°56' E 004°02'0 0.0
2014-Jul-23 19:34N 51°56' E 004°02'0 0.0
2014-Jul-23 18:28N 51°56' E 004°02'0 0.0
2014-Jul-23 17:32N 51°56' E 004°02'0 0.0
2014-Jul-23 16:22N 51°56' E 004°02'0 0.0
2014-Jul-23 15:34N 51°56' E 004°02'0 0.0
2014-Jul-23 14:34N 51°56' E 004°02'0 0.0
2014-Jul-23 13:33N 51°56' E 004°02'0 0.0
2014-Jul-23 12:34N 51°56' E 004°02'0 0.0
2014-Jul-23 11:34N 51°56' E 004°02'0 0.0
2014-Jul-23 10:33N 51°56' E 004°02'0 0.2
2014-Jul-23 09:33N 51°57' E 004°02'0 0.2
2014-Jul-23 08:33N 51°56' E 004°02'0 0.0
2014-Jul-23 07:33N 51°56' E 004°02'0 0.0
2014-Jul-23 06:33N 51°56' E 004°02'0 0.0
2014-Jul-23 05:33N 51°56' E 004°02'0 0.0
2014-Jul-23 04:33N 51°56' E 004°02'0 0.0
2014-Jul-23 03:33N 51°56' E 004°02'0 0.0
2014-Jul-23 02:33N 51°56' E 004°02'0 0.0
2014-Jul-23 01:33N 51°56' E 004°02'0 0.0
2014-Jul-23 00:34N 51°56' E 004°02'0 0.0
2014-Jul-22 23:33N 51°56' E 004°02'0 0.0
2014-Jul-22 22:34N 51°56' E 004°02'0 0.0
2014-Jul-22 21:34N 51°56' E 004°02'0 0.0
2014-Jul-22 20:33N 51°56' E 004°02'0 0.0
2014-Jul-22 19:34N 51°56' E 004°02'0 0.0
2014-Jul-22 18:32N 51°56' E 004°02'2 2.0
2014-Jul-22 17:34N 51°58' E 004°05'1 1.4
2014-Jul-22 16:33N 51°57' E 004°02'0 0.0
2014-Jul-22 15:34N 51°57' E 004°02'2 1.5
2014-Jul-22 14:34N 51°57' E 004°05'8 7.9
2014-Jul-22 13:34N 51°53' E 004°15'0 0.3
2014-Jul-22 12:32N 51°53' E 004°14'1 0.9
2014-Jul-22 11:34N 51°52' E 004°15'4 4.4
2014-Jul-22 10:33N 51°54' E 004°22'3 2.8
2014-Jul-22 09:34N 51°53' E 004°26'0 0.0
2014-Jul-22 08:33N 51°53' E 004°26'0 0.2
2014-Jul-22 07:33N 51°53' E 004°26'0 0.0
2014-Jul-22 06:33N 51°53' E 004°26'0 0.0
2014-Jul-22 05:34N 51°53' E 004°26'0 0.0
2014-Jul-22 04:33N 51°53' E 004°26'0 0.0
2014-Jul-22 03:34N 51°53' E 004°26'0 0.0
2014-Jul-22 02:34N 51°53' E 004°26'0 0.0
2014-Jul-22 01:33N 51°53' E 004°26'0 0.0
2014-Jul-22 00:33N 51°53' E 004°26'0 0.0
2014-Jul-21 23:33N 51°53' E 004°26'0 0.0
2014-Jul-21 22:33N 51°53' E 004°26'0 0.0
2014-Jul-21 21:33N 51°53' E 004°26'0 0.0
2014-Jul-21 20:33N 51°53' E 004°26'0 0.0
2014-Jul-21 20:18N 51°53' E 004°26'0 0.2
2014-Jul-21 19:33N 51°53' E 004°26'1 0.7
2014-Jul-21 18:34N 51°53' E 004°26'0 0.1
2014-Jul-21 17:33N 51°53' E 004°26'1 0.6
2014-Jul-21 16:33N 51°54' E 004°26'1 1.3
2014-Jul-21 15:34N 51°53' E 004°25'1 0.9
2014-Jul-21 14:33N 51°53' E 004°24'1 0.7
2014-Jul-21 13:33N 51°53' E 004°24'0 0.0
2014-Jul-21 12:33N 51°53' E 004°24'2 2.5
2014-Jul-21 11:34N 51°54' E 004°28'6 5.7
2014-Jul-21 10:33N 51°53' E 004°37'7 7.0
2014-Jul-21 09:30N 51°49' E 004°47'1010.2
2014-Jul-21 08:33N 51°49' E 005°03'1110.5
2014-Jul-21 07:33N 51°49' E 005°20'64 4.5
2014-Jul-20 17:33N 51°12' E 006°44'18 7.4
2014-Jul-20 15:05N 50°56' E 006°58'108 7.9
2014-Jul-20 01:28N 49°26' E 008°31'9 9.5
2014-Jul-20 00:33N 49°18' E 008°29'1110.7
2014-Jul-19 23:33N 49°08' E 008°22'1211.5
2014-Jul-19 22:33N 48°58' E 008°13'9 8.2
2014-Jul-19 21:26N 48°50' E 008°07'7 6.0
2014-Jul-19 20:14N 48°45' E 007°58'5 6.4
2014-Jul-19 19:28N 48°41' E 007°55'63 3.0
2014-Jul-18 22:21N 47°40' E 007°31'1 1.5
2014-Jul-18 21:33N 47°39' E 007°32'0 0.1
2014-Jul-18 20:33N 47°39' E 007°32'1 0.6
2014-Jul-18 19:33N 47°39' E 007°32'4 4.0
2014-Jul-18 18:33N 47°35' E 007°35'0 0.0
2014-Jul-18 17:33N 47°35' E 007°35'0 0.0
2014-Jul-18 16:33N 47°35' E 007°35'0 0.0
2014-Jul-18 15:33N 47°35' E 007°35'0 0.0
2014-Jul-18 14:31N 47°35' E 007°35'0 0.3
2014-Jul-18 13:34N 47°35' E 007°35'0 0.0
2014-Jul-18 12:33N 47°35' E 007°35'0 0.0
2014-Jul-18 11:31N 47°35' E 007°35'0 0.2
2014-Jul-18 10:34N 47°35' E 007°35'0 0.0
2014-Jul-18 09:34N 47°35' E 007°35'0 0.2
2014-Jul-18 08:33N 47°35' E 007°36'1 0.8
2014-Jul-18 07:32N 47°36' E 007°36'0 0.2
2014-Jul-18 06:16N 47°36' E 007°35'0 0.0
2014-Jul-18 05:33N 47°36' E 007°35'0 0.0
2014-Jul-18 04:33N 47°36' E 007°35'0 0.0
2014-Jul-18 03:33N 47°36' E 007°35'0 0.0
2014-Jul-18 02:33N 47°36' E 007°35'3 2.6
2014-Jul-18 01:31N 47°38' E 007°33'65 1.9
2014-Jul-16 15:29N 48°41' E 007°55'6 5.4
2014-Jul-16 14:27N 48°46' E 008°00'6 6.7
2014-Jul-16 13:33N 48°50' E 008°07'2 2.2
2014-Jul-16 12:25N 48°52' E 008°07'3 3.4
2014-Jul-16 11:33N 48°55' E 008°10'3 3.4
2014-Jul-16 10:33N 48°58' E 008°13'4 3.7
2014-Jul-16 09:33N 48°60' E 008°17'4 3.9
2014-Jul-16 08:33N 49°04' E 008°19'4 4.0
2014-Jul-16 07:34N 49°07' E 008°22'4 3.9
2014-Jul-16 06:34N 49°11' E 008°23'4 4.0
2014-Jul-16 05:33N 49°15' E 008°24'4 4.3
2014-Jul-16 04:32N 49°18' E 008°29'  
Track history (hours):
 
Tides and Currents Weather Stations Pressure Air Temp Water Temp Dewpoint Dewpoint Depression Visibility Wind Speed Wind Dir Waves Ship Positions

Alsace

Last reported at 2014-Jul-25 15:12 UTC. Time now 2014-Jul-26 09:10 UTC.
Position N 51°11' E 006°47'.

Length 178 m.

Type: Ship. MMSI: 244660556.

Date/timePositionNaut miles runAvg speedWind from/ knotsBaromVisibWave heightAir tempDewpointWater temp
2014-Jul-25 15:12N 51°11' E 006°47'3 3.9
2014-Jul-25 14:33N 51°13' E 006°44'52 2.3
2014-Jul-24 15:31N 51°52' E 005°49'6 5.6
2014-Jul-24 14:32N 51°54' E 005°40'6 5.9
2014-Jul-24 13:33N 51°53' E 005°31'5 5.4
2014-Jul-24 12:33N 51°50' E 005°24'4 4.5
2014-Jul-24 11:33N 51°49' E 005°17'6 5.9
2014-Jul-24 10:33N 51°49' E 005°07'6 5.4
2014-Jul-24 09:32N 51°50' E 004°58'2 2.1
2014-Jul-24 08:33N 51°50' E 004°55'8 7.6
2014-Jul-24 07:34N 51°49' E 004°43'5 4.8
2014-Jul-24 06:33N 51°48' E 004°35'7 6.8
2014-Jul-24 05:33N 51°51' E 004°25'7 7.0
2014-Jul-24 04:33N 51°53' E 004°14'6 6.3
2014-Jul-24 03:33N 51°56' E 004°05'1 0.8
2014-Jul-24 02:32N 51°57' E 004°05'0 0.0
2014-Jul-24 01:34N 51°57' E 004°05'0 0.0
2014-Jul-24 00:33N 51°57' E 004°05'0 0.0
2014-Jul-23 23:33N 51°57' E 004°05'0 0.0
2014-Jul-23 22:33N 51°57' E 004°05'1 1.1
2014-Jul-23 21:33N 51°56' E 004°03'1 1.0
2014-Jul-23 20:33N 51°56' E 004°02'0 0.0
2014-Jul-23 19:34N 51°56' E 004°02'0 0.0
2014-Jul-23 18:28N 51°56' E 004°02'0 0.0
2014-Jul-23 17:32N 51°56' E 004°02'0 0.0
2014-Jul-23 16:22N 51°56' E 004°02'0 0.0
2014-Jul-23 15:34N 51°56' E 004°02'0 0.0
2014-Jul-23 14:34N 51°56' E 004°02'0 0.0
2014-Jul-23 13:33N 51°56' E 004°02'0 0.0
2014-Jul-23 12:34N 51°56' E 004°02'0 0.0
2014-Jul-23 11:34N 51°56' E 004°02'0 0.0
2014-Jul-23 10:33N 51°56' E 004°02'0 0.2
2014-Jul-23 09:33N 51°57' E 004°02'0 0.2
2014-Jul-23 08:33N 51°56' E 004°02'0 0.0
2014-Jul-23 07:33N 51°56' E 004°02'0 0.0
2014-Jul-23 06:33N 51°56' E 004°02'0 0.0
2014-Jul-23 05:33N 51°56' E 004°02'0 0.0
2014-Jul-23 04:33N 51°56' E 004°02'0 0.0
2014-Jul-23 03:33N 51°56' E 004°02'0 0.0
2014-Jul-23 02:33N 51°56' E 004°02'0 0.0
2014-Jul-23 01:33N 51°56' E 004°02'0 0.0
2014-Jul-23 00:34N 51°56' E 004°02'0 0.0
2014-Jul-22 23:33N 51°56' E 004°02'0 0.0
2014-Jul-22 22:34N 51°56' E 004°02'0 0.0
2014-Jul-22 21:34N 51°56' E 004°02'0 0.0
2014-Jul-22 20:33N 51°56' E 004°02'0 0.0
2014-Jul-22 19:34N 51°56' E 004°02'0 0.0
2014-Jul-22 18:32N 51°56' E 004°02'2 2.0
2014-Jul-22 17:34N 51°58' E 004°05'1 1.4
2014-Jul-22 16:33N 51°57' E 004°02'0 0.0
2014-Jul-22 15:34N 51°57' E 004°02'2 1.5
2014-Jul-22 14:34N 51°57' E 004°05'8 7.9
2014-Jul-22 13:34N 51°53' E 004°15'0 0.3
2014-Jul-22 12:32N 51°53' E 004°14'1 0.9
2014-Jul-22 11:34N 51°52' E 004°15'4 4.4
2014-Jul-22 10:33N 51°54' E 004°22'3 2.8
2014-Jul-22 09:34N 51°53' E 004°26'0 0.0
2014-Jul-22 08:33N 51°53' E 004°26'0 0.2
2014-Jul-22 07:33N 51°53' E 004°26'0 0.0
2014-Jul-22 06:33N 51°53' E 004°26'0 0.0
2014-Jul-22 05:34N 51°53' E 004°26'0 0.0
2014-Jul-22 04:33N 51°53' E 004°26'0 0.0
2014-Jul-22 03:34N 51°53' E 004°26'0 0.0
2014-Jul-22 02:34N 51°53' E 004°26'0 0.0
2014-Jul-22 01:33N 51°53' E 004°26'0 0.0
2014-Jul-22 00:33N 51°53' E 004°26'0 0.0
2014-Jul-21 23:33N 51°53' E 004°26'0 0.0
2014-Jul-21 22:33N 51°53' E 004°26'0 0.0
2014-Jul-21 21:33N 51°53' E 004°26'0 0.0
2014-Jul-21 20:33N 51°53' E 004°26'0 0.0
2014-Jul-21 20:18N 51°53' E 004°26'0 0.2
2014-Jul-21 19:33N 51°53' E 004°26'1 0.7
2014-Jul-21 18:34N 51°53' E 004°26'0 0.1
2014-Jul-21 17:33N 51°53' E 004°26'1 0.6
2014-Jul-21 16:33N 51°54' E 004°26'1 1.3
2014-Jul-21 15:34N 51°53' E 004°25'1 0.9
2014-Jul-21 14:33N 51°53' E 004°24'1 0.7
2014-Jul-21 13:33N 51°53' E 004°24'0 0.0
2014-Jul-21 12:33N 51°53' E 004°24'2 2.5
2014-Jul-21 11:34N 51°54' E 004°28'6 5.7
2014-Jul-21 10:33N 51°53' E 004°37'7 7.0
2014-Jul-21 09:30N 51°49' E 004°47'1010.2
2014-Jul-21 08:33N 51°49' E 005°03'1110.5
2014-Jul-21 07:33N 51°49' E 005°20'64 4.5
2014-Jul-20 17:33N 51°12' E 006°44'18 7.4
2014-Jul-20 15:05N 50°56' E 006°58'108 7.9
2014-Jul-20 01:28N 49°26' E 008°31'9 9.5
2014-Jul-20 00:33N 49°18' E 008°29'1110.7
2014-Jul-19 23:33N 49°08' E 008°22'1211.5
2014-Jul-19 22:33N 48°58' E 008°13'9 8.2
2014-Jul-19 21:26N 48°50' E 008°07'7 6.0
2014-Jul-19 20:14N 48°45' E 007°58'5 6.4
2014-Jul-19 19:28N 48°41' E 007°55'63 3.0
2014-Jul-18 22:21N 47°40' E 007°31'1 1.5
2014-Jul-18 21:33N 47°39' E 007°32'0 0.1
2014-Jul-18 20:33N 47°39' E 007°32'1 0.6
2014-Jul-18 19:33N 47°39' E 007°32'4 4.0
2014-Jul-18 18:33N 47°35' E 007°35'0 0.0
2014-Jul-18 17:33N 47°35' E 007°35'0 0.0
2014-Jul-18 16:33N 47°35' E 007°35'0 0.0
2014-Jul-18 15:33N 47°35' E 007°35'0 0.0
2014-Jul-18 14:31N 47°35' E 007°35'0 0.3
2014-Jul-18 13:34N 47°35' E 007°35'0 0.0
2014-Jul-18 12:33N 47°35' E 007°35'0 0.0
2014-Jul-18 11:31N 47°35' E 007°35'0 0.2
2014-Jul-18 10:34N 47°35' E 007°35'0 0.0
2014-Jul-18 09:34N 47°35' E 007°35'0 0.2
2014-Jul-18 08:33N 47°35' E 007°36'1 0.8
2014-Jul-18 07:32N 47°36' E 007°36'0 0.2
2014-Jul-18 06:16N 47°36' E 007°35'0 0.0
2014-Jul-18 05:33N 47°36' E 007°35'0 0.0
2014-Jul-18 04:33N 47°36' E 007°35'0 0.0
2014-Jul-18 03:33N 47°36' E 007°35'0 0.0
2014-Jul-18 02:33N 47°36' E 007°35'3 2.6
2014-Jul-18 01:31N 47°38' E 007°33'65 1.9
2014-Jul-16 15:29N 48°41' E 007°55'6 5.4
2014-Jul-16 14:27N 48°46' E 008°00'6 6.7
2014-Jul-16 13:33N 48°50' E 008°07'2 2.2
2014-Jul-16 12:25N 48°52' E 008°07'3 3.4
2014-Jul-16 11:33N 48°55' E 008°10'3 3.4
2014-Jul-16 10:33N 48°58' E 008°13'4 3.7
2014-Jul-16 09:33N 48°60' E 008°17'4 3.9
2014-Jul-16 08:33N 49°04' E 008°19'4 4.0
2014-Jul-16 07:34N 49°07' E 008°22'4 3.9
2014-Jul-16 06:34N 49°11' E 008°23'4 4.0
2014-Jul-16 05:33N 49°15' E 008°24'4 4.3
2014-Jul-16 04:32N 49°18' E 008°29'  

Dump ship's entire track history